createdAt,value
2023-02-22T00:00:50.136Z,100.00
2023-02-22T00:03:24.844Z,100.00
2023-02-22T00:05:55.721Z,100.00
2023-02-22T00:08:25.527Z,100.00
2023-02-22T00:10:55.332Z,100.00
2023-02-22T00:13:23.349Z,100.00
2023-02-22T00:15:51.180Z,100.00
2023-02-22T00:18:20.128Z,100.00
2023-02-22T00:20:48.112Z,100.00
2023-02-22T00:23:19.455Z,100.00
2023-02-22T00:25:48.356Z,100.00
2023-02-22T00:28:18.859Z,100.00
2023-02-22T00:30:48.238Z,100.00
2023-02-22T00:33:17.831Z,100.00
2023-02-22T00:35:46.583Z,100.00
2023-02-22T00:38:16.333Z,100.00
2023-02-22T00:40:45.197Z,100.00
2023-02-22T00:43:13.247Z,100.00
2023-02-22T00:45:43.333Z,100.00
2023-02-22T00:48:11.697Z,100.00
2023-02-22T00:50:39.433Z,100.00
2023-02-22T00:53:09.218Z,100.00
2023-02-22T00:55:38.614Z,100.00
2023-02-22T00:58:07.879Z,100.00
2023-02-22T01:00:38.176Z,100.00
2023-02-22T01:03:08.267Z,100.00
2023-02-22T01:05:36.452Z,100.00
2023-02-22T01:08:07.530Z,100.00
2023-02-22T01:10:35.517Z,100.00
2023-02-22T01:13:08.382Z,100.00
2023-02-22T01:15:38.173Z,100.00
2023-02-22T01:18:08.012Z,100.00
2023-02-22T01:20:36.841Z,100.00
2023-02-22T01:23:07.829Z,100.00
2023-02-22T01:25:36.921Z,100.00
2023-02-22T01:28:06.889Z,100.00
2023-02-22T01:30:36.560Z,100.00
2023-02-22T01:33:06.467Z,100.00
2023-02-22T01:35:37.425Z,100.00
2023-02-22T01:38:05.432Z,100.00
2023-02-22T01:40:35.492Z,100.00
2023-02-22T01:43:06.538Z,100.00
2023-02-22T01:45:44.153Z,100.00
2023-02-22T01:48:16.242Z,100.00
2023-02-22T01:50:49.481Z,100.00
2023-02-22T01:53:20.067Z,100.00
2023-02-22T01:55:48.767Z,100.00
2023-02-22T01:58:18.168Z,100.00
2023-02-22T02:00:45.959Z,100.00
2023-02-22T02:03:18.912Z,100.00
2023-02-22T02:05:49.135Z,100.00
2023-02-22T02:08:28.632Z,100.00
2023-02-22T02:10:57.940Z,100.00
2023-02-22T02:13:26.675Z,100.00
2023-02-22T02:15:56.079Z,100.00
2023-02-22T02:18:25.444Z,100.00
2023-02-22T02:21:11.854Z,100.00
2023-02-22T02:24:11.915Z,100.00
2023-02-22T02:27:09.676Z,100.00
2023-02-22T02:30:19.339Z,100.00
2023-02-22T02:32:54.833Z,100.00
2023-02-22T02:35:36.737Z,100.00
2023-02-22T02:38:14.632Z,100.00
2023-02-22T02:40:49.240Z,100.00
2023-02-22T02:43:27.795Z,100.00
2023-02-22T02:46:00.121Z,100.00
2023-02-22T02:48:34.199Z,100.00
2023-02-22T02:51:07.837Z,100.00
2023-02-22T02:53:39.396Z,100.00
2023-02-22T02:56:07.846Z,100.00
2023-02-22T02:58:44.899Z,100.00
2023-02-22T03:01:15.722Z,100.00
2023-02-22T03:03:58.039Z,100.00
2023-02-22T03:07:11.275Z,100.00
2023-02-22T03:09:47.694Z,100.00
2023-02-22T03:12:29.046Z,100.00
2023-02-22T03:15:07.388Z,100.00
2023-02-22T03:17:48.604Z,100.00
2023-02-22T03:20:31.633Z,100.00
2023-02-22T03:23:07.975Z,100.00
2023-02-22T03:25:39.635Z,100.00
2023-02-22T03:28:11.577Z,100.00
2023-02-22T03:30:44.272Z,100.00
2023-02-22T03:33:20.465Z,100.00
2023-02-22T03:35:56.738Z,100.00
2023-02-22T03:38:29.704Z,100.00
2023-02-22T03:41:02.220Z,100.00
2023-02-22T03:43:35.137Z,100.00
2023-02-22T03:46:06.564Z,100.00
2023-02-22T03:48:40.784Z,100.00
2023-02-22T03:51:11.163Z,100.00
2023-02-22T03:53:39.005Z,100.00
2023-02-22T03:56:12.208Z,100.00
2023-02-22T03:58:43.980Z,100.00
2023-02-22T04:01:12.809Z,100.00
2023-02-22T04:03:42.124Z,100.00
2023-02-22T04:06:11.819Z,100.00
2023-02-22T04:08:40.302Z,100.00
2023-02-22T04:11:08.742Z,100.00
2023-02-22T04:13:36.516Z,100.00
2023-02-22T04:16:04.323Z,100.00
2023-02-22T04:18:32.570Z,100.00
2023-02-22T04:21:01.246Z,100.00
2023-02-22T04:23:36.552Z,100.00
2023-02-22T04:26:04.535Z,100.00
2023-02-22T04:28:32.433Z,100.00
2023-02-22T04:31:26.252Z,100.00
2023-02-22T04:33:56.202Z,100.00
2023-02-22T04:36:28.741Z,100.00
2023-02-22T04:38:58.345Z,100.00
2023-02-22T04:41:28.396Z,100.00
2023-02-22T04:43:56.203Z,100.00
2023-02-22T04:46:27.358Z,100.00
2023-02-22T04:48:55.657Z,100.00
2023-02-22T04:51:26.387Z,100.00
2023-02-22T04:54:21.362Z,100.00
2023-02-22T04:56:49.476Z,100.00
2023-02-22T04:59:17.445Z,100.00
2023-02-22T05:01:47.756Z,100.00
2023-02-22T05:04:15.523Z,100.00
2023-02-22T05:06:54.971Z,100.00
2023-02-22T05:09:24.275Z,100.00
2023-02-22T05:11:52.219Z,100.00
2023-02-22T05:14:20.027Z,100.00
2023-02-22T05:16:49.571Z,100.00
2023-02-22T05:19:17.413Z,100.00
2023-02-22T05:21:45.210Z,100.00
2023-02-22T05:24:12.960Z,100.00
2023-02-22T05:26:42.174Z,100.00
2023-02-22T05:29:09.932Z,100.00
2023-02-22T05:31:37.803Z,100.00
2023-02-22T05:34:05.626Z,100.00
2023-02-22T05:36:47.931Z,100.00
2023-02-22T05:39:16.091Z,100.00
2023-02-22T05:41:45.279Z,100.00
2023-02-22T05:44:12.964Z,100.00
2023-02-22T05:46:40.687Z,100.00
2023-02-22T05:49:08.482Z,100.00
2023-02-22T05:51:36.262Z,100.00
2023-02-22T05:54:04.155Z,100.00
2023-02-22T05:56:31.913Z,100.00
2023-02-22T05:59:01.055Z,100.00
2023-02-22T06:01:29.119Z,100.00
2023-02-22T06:03:56.918Z,100.00
2023-02-22T06:06:24.651Z,100.00
2023-02-22T06:08:52.456Z,100.00
2023-02-22T06:11:20.553Z,100.00
2023-02-22T06:13:51.089Z,100.00
2023-02-22T06:16:21.103Z,100.00
2023-02-22T06:18:49.092Z,100.00
2023-02-22T06:21:17.486Z,100.00
2023-02-22T06:23:45.511Z,100.00
2023-02-22T06:26:13.510Z,100.00
2023-02-22T06:28:41.567Z,100.00
2023-02-22T06:31:09.369Z,100.00
2023-02-22T06:33:38.621Z,100.00
2023-02-22T06:36:07.113Z,100.00
2023-02-22T06:38:34.876Z,100.00
2023-02-22T06:41:02.826Z,100.00
2023-02-22T06:43:30.611Z,100.00
2023-02-22T06:45:58.316Z,100.00
2023-02-22T06:48:26.007Z,100.00
2023-02-22T06:50:55.146Z,100.00
2023-02-22T06:53:22.835Z,100.00
2023-02-22T06:55:50.723Z,100.00
2023-02-22T06:58:18.559Z,100.00
2023-02-22T07:00:46.608Z,100.00
2023-02-22T07:03:14.460Z,100.00
2023-02-22T07:05:42.265Z,100.00
2023-02-22T07:08:12.133Z,100.00
2023-02-22T07:10:41.003Z,100.00
2023-02-22T07:13:09.687Z,100.00
2023-02-22T07:15:37.810Z,100.00
2023-02-22T07:18:05.708Z,100.00
2023-02-22T07:20:34.235Z,100.00
2023-02-22T07:23:02.312Z,100.00
2023-02-22T07:25:31.645Z,100.00
2023-02-22T07:27:59.643Z,100.00
2023-02-22T07:30:30.990Z,100.00
2023-02-22T07:33:00.033Z,100.00
2023-02-22T07:35:29.545Z,100.00
2023-02-22T07:37:57.858Z,100.00
2023-02-22T07:40:27.174Z,100.00
2023-02-22T07:42:59.446Z,100.00
2023-02-22T07:45:29.840Z,100.00
2023-02-22T07:47:58.440Z,100.00
2023-02-22T07:50:27.578Z,100.00
2023-02-22T07:52:57.326Z,100.00
2023-02-22T07:55:27.903Z,100.00
2023-02-22T07:57:59.227Z,100.00
2023-02-22T08:00:29.649Z,100.00
2023-02-22T08:02:57.845Z,100.00
2023-02-22T08:05:27.883Z,100.00
2023-02-22T08:07:56.066Z,100.00
2023-02-22T08:10:25.930Z,100.00
2023-02-22T08:12:54.586Z,100.00
2023-02-22T08:15:25.955Z,100.00
2023-02-22T08:17:54.441Z,100.00
2023-02-22T08:20:22.467Z,100.00
2023-02-22T08:22:50.653Z,100.00
2023-02-22T08:25:20.353Z,100.00
2023-02-22T08:27:49.034Z,100.00
2023-02-22T08:30:18.890Z,100.00
2023-02-22T08:32:48.989Z,100.00
2023-02-22T08:35:18.253Z,100.00
2023-02-22T08:37:46.403Z,100.00
2023-02-22T08:40:17.756Z,100.00
2023-02-22T08:42:45.990Z,100.00
2023-02-22T08:45:14.320Z,100.00
2023-02-22T08:47:42.980Z,100.00
2023-02-22T08:50:18.684Z,100.00
2023-02-22T08:52:46.433Z,100.00
2023-02-22T08:55:14.965Z,100.00
2023-02-22T08:57:42.772Z,100.00
2023-02-22T09:00:11.879Z,100.00
2023-02-22T09:02:39.688Z,100.00
2023-02-22T09:05:08.514Z,100.00
2023-02-22T09:07:37.780Z,100.00
2023-02-22T09:10:06.143Z,100.00
2023-02-22T09:12:33.923Z,100.00
2023-02-22T09:15:01.706Z,100.00
2023-02-22T09:17:29.509Z,100.00
2023-02-22T09:19:57.298Z,100.00
2023-02-22T09:22:25.057Z,100.00
2023-02-22T09:24:56.990Z,100.00
2023-02-22T09:27:28.194Z,100.00
2023-02-22T09:29:56.945Z,100.00
2023-02-22T09:32:27.627Z,100.00
2023-02-22T09:34:55.800Z,100.00
2023-02-22T09:37:23.958Z,100.00
2023-02-22T09:39:52.283Z,100.00
2023-02-22T09:42:30.852Z,100.00
2023-02-22T09:45:05.909Z,100.00
2023-02-22T09:47:41.919Z,100.00
2023-02-22T09:50:16.534Z,100.00
2023-02-22T09:52:54.705Z,100.00
2023-02-22T09:55:34.186Z,100.00
2023-02-22T09:58:07.272Z,100.00
2023-02-22T10:00:38.558Z,100.00
2023-02-22T10:03:20.463Z,100.00
2023-02-22T10:05:54.140Z,100.00
2023-02-22T10:08:22.111Z,100.00
2023-02-22T10:11:00.285Z,100.00
2023-02-22T10:13:39.305Z,100.00
2023-02-22T10:16:17.317Z,100.00
2023-02-22T10:19:03.490Z,100.00
2023-02-22T10:21:42.564Z,100.00
2023-02-22T10:24:23.572Z,100.00
2023-02-22T10:26:52.144Z,100.00
2023-02-22T10:29:31.395Z,100.00
2023-02-22T10:32:03.040Z,100.00
2023-02-22T10:34:34.939Z,100.00
2023-02-22T10:37:17.552Z,100.00
2023-02-22T10:39:46.670Z,100.00
2023-02-22T10:42:15.741Z,100.00
2023-02-22T10:44:44.871Z,100.00
2023-02-22T10:47:18.137Z,100.00
2023-02-22T10:49:50.724Z,100.00
2023-02-22T10:52:24.643Z,100.00
2023-02-22T10:54:54.437Z,100.00
2023-02-22T10:57:27.457Z,100.00
2023-02-22T10:59:57.792Z,100.00
2023-02-22T11:02:31.142Z,100.00
2023-02-22T11:05:00.640Z,100.00
2023-02-22T11:07:30.842Z,100.00
2023-02-22T11:10:00.778Z,100.00
2023-02-22T11:12:31.964Z,100.00
2023-02-22T11:15:27.717Z,96.85
2023-02-22T11:17:57.771Z,97.29
2023-02-22T11:20:28.083Z,93.72
2023-02-22T11:22:58.219Z,89.22
2023-02-22T11:25:28.387Z,90.84
2023-02-22T11:27:59.931Z,86.88
2023-02-22T11:30:33.042Z,88.00
2023-02-22T11:33:11.883Z,87.28
2023-02-22T11:35:50.117Z,83.65
2023-02-22T11:38:22.038Z,84.15
2023-02-22T11:41:14.487Z,76.94
2023-02-22T11:43:42.482Z,80.62
2023-02-22T11:46:15.820Z,77.63
2023-02-22T11:48:55.119Z,81.35
2023-02-22T11:51:36.877Z,77.78
2023-02-22T11:54:38.099Z,77.92
2023-02-22T11:57:21.997Z,76.59
2023-02-22T12:00:02.478Z,78.62
2023-02-22T12:02:57.436Z,77.17
2023-02-22T12:05:37.249Z,73.63
2023-02-22T12:08:19.975Z,76.30
2023-02-22T12:11:03.382Z,78.01
2023-02-22T12:13:41.155Z,76.87
2023-02-22T12:16:19.711Z,74.44
2023-02-22T12:19:03.513Z,73.27
2023-02-22T12:21:33.904Z,72.39
2023-02-22T12:24:05.530Z,71.99
2023-02-22T12:26:38.768Z,70.50
2023-02-22T12:29:14.494Z,67.53
2023-02-22T12:31:46.546Z,68.23
2023-02-22T12:34:30.499Z,69.74
2023-02-22T12:37:11.581Z,66.87
2023-02-22T12:39:53.569Z,66.08
2023-02-22T12:42:29.278Z,66.77
2023-02-22T12:45:02.195Z,65.77
2023-02-22T12:47:36.921Z,66.87
2023-02-22T12:50:15.843Z,66.56
2023-02-22T12:52:48.888Z,67.15
2023-02-22T12:55:25.051Z,65.83
2023-02-22T12:58:01.976Z,65.30
2023-02-22T13:00:40.489Z,66.26
2023-02-22T13:03:28.339Z,69.40
2023-02-22T13:06:18.647Z,69.44
2023-02-22T13:08:55.403Z,67.65
2023-02-22T13:11:32.425Z,67.59
2023-02-22T13:14:16.538Z,66.71
2023-02-22T13:16:53.516Z,70.77
2023-02-22T13:19:41.974Z,68.75
2023-02-22T13:22:16.984Z,69.99
2023-02-22T13:24:58.552Z,68.17
2023-02-22T13:27:31.425Z,70.26
2023-02-22T13:30:01.435Z,71.37
2023-02-22T13:32:43.579Z,70.57
2023-02-22T13:35:26.249Z,73.58
2023-02-22T13:38:21.243Z,73.04
2023-02-22T13:41:09.879Z,77.64
2023-02-22T13:43:52.768Z,77.83
2023-02-22T13:46:44.077Z,76.54
2023-02-22T13:49:37.537Z,78.77
2023-02-22T13:52:12.112Z,78.50
2023-02-22T13:54:46.550Z,83.75
2023-02-22T13:57:22.562Z,81.08
2023-02-22T14:00:11.270Z,82.20
2023-02-22T14:03:00.893Z,82.58
2023-02-22T14:05:51.798Z,81.46
2023-02-22T14:08:45.685Z,79.00
2023-02-22T14:11:56.645Z,78.69
2023-02-22T14:14:25.928Z,80.72
2023-02-22T14:17:23.790Z,77.63
2023-02-22T14:20:21.593Z,80.37
2023-02-22T14:22:52.415Z,78.68
2023-02-22T14:25:37.277Z,80.34
2023-02-22T14:28:06.949Z,82.18
2023-02-22T14:30:38.724Z,81.21
2023-02-22T14:33:47.124Z,78.57
2023-02-22T14:36:16.901Z,78.73
2023-02-22T14:38:46.769Z,82.67
2023-02-22T14:41:17.949Z,81.16
2023-02-22T14:43:47.366Z,78.98
2023-02-22T14:46:21.278Z,78.80
2023-02-22T14:48:53.274Z,78.03
2023-02-22T14:51:29.100Z,78.58
2023-02-22T14:54:04.626Z,76.23
2023-02-22T14:56:41.093Z,77.00
2023-02-22T14:59:21.092Z,78.73
2023-02-22T15:02:02.236Z,75.53
2023-02-22T15:04:37.821Z,78.04
2023-02-22T15:07:22.448Z,77.54
2023-02-22T15:09:50.302Z,76.32
2023-02-22T15:12:29.811Z,78.40
2023-02-22T15:15:14.721Z,79.14
2023-02-22T15:17:46.208Z,79.79
2023-02-22T15:20:17.591Z,78.75
2023-02-22T15:22:46.806Z,80.18
2023-02-22T15:25:14.991Z,80.94
2023-02-22T15:27:47.950Z,79.50
2023-02-22T15:30:21.223Z,81.34
2023-02-22T15:33:03.221Z,82.60
2023-02-22T15:35:33.923Z,81.76
2023-02-22T15:38:06.161Z,82.54
2023-02-22T15:40:34.421Z,84.20
2023-02-22T15:43:04.247Z,83.63
2023-02-22T15:45:32.876Z,84.33
2023-02-22T15:48:00.750Z,87.17
2023-02-22T15:50:30.431Z,91.97
2023-02-22T15:53:01.703Z,96.57
2023-02-22T15:55:34.816Z,94.54
2023-02-22T15:58:11.195Z,96.79
2023-02-22T16:00:41.157Z,100.00
2023-02-22T16:03:12.146Z,100.00
2023-02-22T16:05:46.570Z,100.00
2023-02-22T16:08:19.799Z,100.00
2023-02-22T16:10:54.432Z,100.00
2023-02-22T16:13:32.936Z,100.00
2023-02-22T16:16:23.923Z,100.00
2023-02-22T16:18:53.393Z,100.00
2023-02-22T16:21:31.528Z,100.00
2023-02-22T16:24:15.273Z,100.00
2023-02-22T16:27:04.552Z,100.00
2023-02-22T16:29:32.493Z,100.00
2023-02-22T16:32:01.744Z,100.00
2023-02-22T16:34:30.228Z,100.00
2023-02-22T16:36:58.823Z,100.00
2023-02-22T16:39:28.430Z,100.00
2023-02-22T16:41:59.580Z,100.00
2023-02-22T16:44:27.790Z,100.00
2023-02-22T16:46:57.688Z,100.00
2023-02-22T16:49:25.709Z,100.00
2023-02-22T16:52:08.340Z,100.00
2023-02-22T16:54:45.591Z,100.00
2023-02-22T16:57:21.584Z,100.00
2023-02-22T16:59:52.876Z,100.00
2023-02-22T17:02:26.112Z,100.00
2023-02-22T17:04:54.056Z,100.00
2023-02-22T17:07:30.949Z,100.00
2023-02-22T17:09:59.260Z,100.00
2023-02-22T17:12:31.906Z,100.00
2023-02-22T17:14:59.797Z,100.00
2023-02-22T17:17:27.709Z,100.00
2023-02-22T17:19:55.855Z,100.00
2023-02-22T17:22:24.011Z,100.00
2023-02-22T17:24:52.138Z,100.00
2023-02-22T17:27:19.877Z,100.00
2023-02-22T17:29:49.625Z,100.00
2023-02-22T17:32:17.544Z,100.00
2023-02-22T17:34:45.313Z,100.00
2023-02-22T17:37:13.075Z,100.00
2023-02-22T17:39:40.864Z,100.00
2023-02-22T17:42:08.652Z,100.00
2023-02-22T17:44:36.712Z,100.00
2023-02-22T17:47:06.147Z,100.00
2023-02-22T17:49:33.850Z,100.00
2023-02-22T17:52:06.136Z,100.00
2023-02-22T17:54:34.098Z,100.00
2023-02-22T17:57:02.000Z,100.00
2023-02-22T17:59:29.690Z,100.00
2023-02-22T18:01:57.512Z,100.00
2023-02-22T18:04:26.646Z,100.00
2023-02-22T18:06:54.440Z,100.00
2023-02-22T18:09:23.335Z,100.00
2023-02-22T18:11:51.091Z,100.00
2023-02-22T18:14:18.785Z,100.00
2023-02-22T18:16:47.918Z,100.00
2023-02-22T18:19:20.037Z,100.00
2023-02-22T18:21:52.362Z,100.00
2023-02-22T18:24:20.119Z,100.00
2023-02-22T18:26:47.948Z,100.00
2023-02-22T18:29:15.822Z,100.00
2023-02-22T18:31:45.343Z,100.00
2023-02-22T18:34:13.438Z,100.00
2023-02-22T18:36:41.141Z,100.00
2023-02-22T18:39:12.996Z,100.00
2023-02-22T18:41:40.792Z,100.00
2023-02-22T18:44:11.098Z,100.00
2023-02-22T18:46:39.353Z,100.00
2023-02-22T18:49:07.193Z,100.00
2023-02-22T18:51:35.274Z,100.00
2023-02-22T18:54:02.992Z,100.00
2023-02-22T18:56:33.937Z,100.00
2023-02-22T18:59:03.414Z,100.00
2023-02-22T19:01:35.647Z,100.00
2023-02-22T19:04:03.573Z,100.00
2023-02-22T19:06:31.394Z,100.00
2023-02-22T19:09:02.098Z,100.00
2023-02-22T19:11:29.984Z,100.00
2023-02-22T19:13:59.597Z,100.00
2023-02-22T19:16:28.174Z,100.00
2023-02-22T19:18:57.983Z,100.00
2023-02-22T19:21:27.046Z,100.00
2023-02-22T19:24:01.222Z,100.00
2023-02-22T19:26:30.188Z,100.00
2023-02-22T19:29:04.636Z,100.00
2023-02-22T19:31:33.926Z,100.00
2023-02-22T19:34:03.126Z,100.00
2023-02-22T19:36:31.010Z,100.00
2023-02-22T19:39:01.554Z,100.00
2023-02-22T19:41:30.037Z,100.00
2023-02-22T19:43:59.839Z,100.00
2023-02-22T19:46:28.222Z,100.00
2023-02-22T19:48:56.446Z,100.00
2023-02-22T19:51:27.791Z,100.00
2023-02-22T19:53:58.818Z,100.00
2023-02-22T19:56:28.299Z,100.00
2023-02-22T19:58:58.028Z,100.00
2023-02-22T20:01:29.178Z,100.00
2023-02-22T20:03:59.861Z,100.00
2023-02-22T20:06:29.760Z,100.00
2023-02-22T20:08:58.089Z,100.00
2023-02-22T20:11:26.186Z,100.00
2023-02-22T20:13:55.548Z,100.00
2023-02-22T20:16:23.976Z,100.00
2023-02-22T20:18:54.430Z,100.00
2023-02-22T20:21:25.605Z,100.00
2023-02-22T20:23:57.069Z,100.00
2023-02-22T20:26:25.559Z,100.00
2023-02-22T20:29:03.952Z,100.00
2023-02-22T20:31:32.448Z,100.00
2023-02-22T20:34:02.331Z,100.00
2023-02-22T20:36:31.819Z,100.00
2023-02-22T20:39:00.617Z,100.00
2023-02-22T20:41:30.424Z,100.00
2023-02-22T20:43:59.856Z,100.00
2023-02-22T20:46:31.315Z,100.00
2023-02-22T20:49:01.983Z,100.00
2023-02-22T20:51:30.711Z,100.00
2023-02-22T20:54:00.027Z,100.00
2023-02-22T20:56:29.749Z,100.00
2023-02-22T20:59:03.126Z,100.00
2023-02-22T21:01:34.394Z,100.00
2023-02-22T21:04:04.818Z,100.00
2023-02-22T21:06:35.306Z,100.00
2023-02-22T21:09:07.251Z,100.00
2023-02-22T21:11:35.576Z,100.00
2023-02-22T21:14:04.017Z,100.00
2023-02-22T21:16:34.181Z,100.00
2023-02-22T21:19:05.439Z,100.00
2023-02-22T21:21:33.763Z,100.00
2023-02-22T21:24:02.193Z,100.00
2023-02-22T21:26:32.613Z,100.00
2023-02-22T21:29:03.252Z,100.00
2023-02-22T21:31:32.390Z,100.00
2023-02-22T21:34:01.100Z,100.00
2023-02-22T21:36:31.951Z,100.00
2023-02-22T21:39:01.443Z,100.00
2023-02-22T21:41:32.235Z,100.00
2023-02-22T21:44:01.010Z,100.00
2023-02-22T21:46:30.427Z,100.00
2023-02-22T21:48:59.503Z,100.00
2023-02-22T21:51:33.848Z,100.00
2023-02-22T21:54:03.381Z,100.00
2023-02-22T21:56:34.224Z,100.00
2023-02-22T21:59:05.010Z,100.00
2023-02-22T22:01:37.813Z,100.00
2023-02-22T22:04:06.248Z,100.00
2023-02-22T22:06:36.732Z,100.00
2023-02-22T22:09:18.077Z,100.00
2023-02-22T22:11:51.014Z,100.00
2023-02-22T22:14:20.462Z,100.00
2023-02-22T22:16:49.076Z,100.00
2023-02-22T22:19:17.315Z,100.00
2023-02-22T22:21:48.864Z,100.00
2023-02-22T22:24:16.920Z,100.00
2023-02-22T22:26:45.076Z,100.00
2023-02-22T22:29:14.469Z,100.00
2023-02-22T22:31:42.424Z,100.00
2023-02-22T22:34:10.210Z,100.00
2023-02-22T22:36:41.977Z,100.00
2023-02-22T22:39:13.772Z,100.00
2023-02-22T22:41:45.388Z,100.00
2023-02-22T22:44:16.093Z,100.00
2023-02-22T22:46:49.002Z,100.00
2023-02-22T22:49:17.420Z,100.00
2023-02-22T22:51:47.295Z,100.00
2023-02-22T22:54:16.436Z,100.00
2023-02-22T22:56:44.225Z,100.00
2023-02-22T22:59:13.362Z,100.00
2023-02-22T23:01:44.720Z,100.00
2023-02-22T23:04:17.932Z,100.00
2023-02-22T23:06:49.864Z,100.00
2023-02-22T23:09:21.788Z,100.00
2023-02-22T23:11:53.275Z,100.00
2023-02-22T23:14:24.178Z,100.00
2023-02-22T23:16:56.494Z,100.00
2023-02-22T23:19:24.345Z,100.00
2023-02-22T23:21:52.167Z,100.00
2023-02-22T23:24:21.531Z,100.00
2023-02-22T23:26:49.476Z,100.00
2023-02-22T23:29:18.637Z,100.00
2023-02-22T23:31:48.458Z,100.00
2023-02-22T23:34:21.052Z,100.00
2023-02-22T23:36:54.271Z,100.00
2023-02-22T23:39:24.908Z,100.00
2023-02-22T23:41:53.806Z,100.00
2023-02-22T23:44:22.026Z,100.00
2023-02-22T23:46:55.136Z,100.00
2023-02-22T23:49:23.919Z,100.00
2023-02-22T23:51:52.551Z,100.00
2023-02-22T23:54:21.670Z,100.00
2023-02-22T23:56:56.603Z,100.00
2023-02-22T23:59:26.401Z,100.00
